Hikosan Maru — JD3735 — position and weather

sailwx.info

Track history (hours):
 
Tides and Currents Weather Stations Pressure Air Temp Water Temp Dewpoint Dewpoint Depression Visibility Wind Speed Wind Dir Waves Ship Positions

Hikosan Maru

Last reported at 2017-Nov-17 11:13 UTC. Time now 2017-Nov-22 10:58 UTC.
Position N 34°36' E 134°53'.

Length 74 m; draft 4.3 m.

Type: Cargo ship. MMSI: 431005844.

Date/timePositionNaut miles runAvg speedWind from/ knotsBaromVisibWave heightAir tempDewpointWater temp
2017-Nov-17 11:13N 34°36' E 134°53'313.2
2017-Nov-17 11:00N 34°37' E 134°56'713.1
2017-Nov-17 10:30N 34°36' E 135°04'611.8
2017-Nov-17 10:00N 34°37' E 135°11'4 8.7
2017-Nov-17 09:30N 34°39' E 135°16'3 6.7
2017-Nov-17 09:00N 34°42' E 135°14'0 0.1
2017-Nov-17 08:26N 34°42' E 135°14'0 0.0
2017-Nov-17 07:56N 34°42' E 135°14'0 0.0
2017-Nov-17 07:26N 34°42' E 135°14'0 0.0
2017-Nov-17 06:56N 34°42' E 135°14'0 0.0
2017-Nov-17 06:20N 34°42' E 135°14'0 0.0
2017-Nov-17 05:56N 34°42' E 135°14'0 0.0
2017-Nov-17 05:26N 34°42' E 135°14'0 0.0
2017-Nov-17 04:56N 34°42' E 135°14'0 0.0
2017-Nov-17 04:26N 34°42' E 135°14'0 0.0
2017-Nov-17 03:56N 34°42' E 135°14'1 1.5
2017-Nov-17 03:30N 34°41' E 135°14'2 4.0
2017-Nov-17 03:00N 34°40' E 135°15'3 6.0
2017-Nov-17 02:30N 34°37' E 135°15'0 0.0
2017-Nov-17 01:56N 34°37' E 135°15'0 0.0
2017-Nov-17 01:26N 34°37' E 135°15'0 0.0
2017-Nov-17 00:50N 34°37' E 135°15'0 0.0
2017-Nov-17 00:14N 34°37' E 135°15'0 0.0
2017-Nov-16 23:56N 34°37' E 135°15'0 0.0
2017-Nov-16 23:20N 34°37' E 135°15'0 0.0
2017-Nov-16 22:56N 34°37' E 135°15'0 0.0
2017-Nov-16 22:26N 34°37' E 135°15'0 0.0
2017-Nov-16 21:14N 34°37' E 135°15'0 0.0
2017-Nov-16 20:44N 34°37' E 135°15'0 0.0
2017-Nov-16 20:14N 34°37' E 135°15'0 0.0
2017-Nov-16 19:56N 34°37' E 135°15'0 0.1
2017-Nov-16 19:26N 34°37' E 135°15'0 0.1
2017-Nov-16 18:50N 34°37' E 135°15'0 0.0
2017-Nov-16 18:26N 34°37' E 135°15'0 0.0
2017-Nov-16 17:56N 34°37' E 135°15'0 0.0
2017-Nov-16 17:26N 34°37' E 135°15'0 0.0
2017-Nov-16 16:56N 34°37' E 135°15'0 0.1
2017-Nov-16 16:26N 34°37' E 135°15'0 0.1
2017-Nov-16 15:45N 34°37' E 135°15'1 3.8
2017-Nov-16 15:29N 34°36' E 135°14'611.5
2017-Nov-16 15:00N 34°35' E 135°07'713.6
2017-Nov-16 14:29N 34°37' E 134°59'  
2017-Nov-14 07:24N 34°36' E 134°53'712.8
2017-Nov-14 06:53N 34°37' E 135°01'411.6
2017-Nov-14 06:30N 34°36' E 135°06'611.6
2017-Nov-14 06:00N 34°36' E 135°13'510.1
2017-Nov-14 05:30N 34°39' E 135°18'3 7.0
2017-Nov-14 05:00N 34°42' E 135°16'0 0.1
2017-Nov-14 04:23N 34°42' E 135°16'0 0.0
2017-Nov-14 03:47N 34°42' E 135°16'0 0.0
2017-Nov-14 03:29N 34°42' E 135°16'0 0.0
2017-Nov-14 02:59N 34°42' E 135°16'0 0.0
2017-Nov-14 02:29N 34°42' E 135°16'0 0.0
2017-Nov-14 01:59N 34°42' E 135°16'0 0.0
2017-Nov-14 01:29N 34°42' E 135°16'0 0.0
2017-Nov-14 00:59N 34°42' E 135°16'0 0.0
2017-Nov-14 00:17N 34°42' E 135°16'0 0.0
2017-Nov-13 23:59N 34°42' E 135°16'0 0.0
2017-Nov-13 23:23N 34°42' E 135°16'0 0.1
2017-Nov-13 22:53N 34°42' E 135°16'1 3.1
2017-Nov-13 22:31N 34°42' E 135°17'5 9.3
2017-Nov-13 22:00N 34°37' E 135°18'  
2017-Nov-10 14:36N 34°35' E 134°51'111.0
2017-Nov-10 14:30N 34°35' E 134°53'611.0
2017-Nov-10 13:59N 34°38' E 134°59'510.3
2017-Nov-10 13:30N 34°37' E 135°05'611.3
2017-Nov-10 13:00N 34°36' E 135°12'611.5
2017-Nov-10 12:30N 34°38' E 135°18'510.4
2017-Nov-10 12:00N 34°41' E 135°24'2 2.8
2017-Nov-10 11:27N 34°42' E 135°25'0 0.0
2017-Nov-10 10:21N 34°42' E 135°25'0 0.0
2017-Nov-10 09:51N 34°42' E 135°25'0 0.0
2017-Nov-10 09:21N 34°42' E 135°25'0 0.0
2017-Nov-10 08:57N 34°42' E 135°25'0 0.0
2017-Nov-10 08:27N 34°42' E 135°25'0 0.0
2017-Nov-10 07:51N 34°42' E 135°25'0 0.0
2017-Nov-10 07:27N 34°42' E 135°25'0 0.0
2017-Nov-10 06:51N 34°42' E 135°25'0 0.0
2017-Nov-10 06:27N 34°42' E 135°25'0 0.0
2017-Nov-10 05:45N 34°42' E 135°25'0 0.0
2017-Nov-10 05:21N 34°42' E 135°25'0 0.0
2017-Nov-10 04:39N 34°42' E 135°25'0 0.0
2017-Nov-10 02:57N 34°42' E 135°25'0 0.6
2017-Nov-10 02:30N 34°42' E 135°24'4 7.8
2017-Nov-10 02:00N 34°39' E 135°21'510.7
2017-Nov-10 01:30N 34°36' E 135°16'611.1
2017-Nov-10 01:00N 34°35' E 135°09'611.0
2017-Nov-10 00:30N 34°36' E 135°03'910.1
2017-Nov-09 23:39N 34°34' E 134°52'  
Track history (hours):
 
Tides and Currents Weather Stations Pressure Air Temp Water Temp Dewpoint Dewpoint Depression Visibility Wind Speed Wind Dir Waves Ship Positions

Hikosan Maru

Last reported at 2017-Nov-17 11:13 UTC. Time now 2017-Nov-22 10:58 UTC.
Position N 34°36' E 134°53'.

Length 74 m; draft 4.3 m.

Type: Cargo ship. MMSI: 431005844.

Date/timePositionNaut miles runAvg speedWind from/ knotsBaromVisibWave heightAir tempDewpointWater temp
2017-Nov-17 11:13N 34°36' E 134°53'313.2
2017-Nov-17 11:00N 34°37' E 134°56'713.1
2017-Nov-17 10:30N 34°36' E 135°04'611.8
2017-Nov-17 10:00N 34°37' E 135°11'4 8.7
2017-Nov-17 09:30N 34°39' E 135°16'3 6.7
2017-Nov-17 09:00N 34°42' E 135°14'0 0.1
2017-Nov-17 08:26N 34°42' E 135°14'0 0.0
2017-Nov-17 07:56N 34°42' E 135°14'0 0.0
2017-Nov-17 07:26N 34°42' E 135°14'0 0.0
2017-Nov-17 06:56N 34°42' E 135°14'0 0.0
2017-Nov-17 06:20N 34°42' E 135°14'0 0.0
2017-Nov-17 05:56N 34°42' E 135°14'0 0.0
2017-Nov-17 05:26N 34°42' E 135°14'0 0.0
2017-Nov-17 04:56N 34°42' E 135°14'0 0.0
2017-Nov-17 04:26N 34°42' E 135°14'0 0.0
2017-Nov-17 03:56N 34°42' E 135°14'1 1.5
2017-Nov-17 03:30N 34°41' E 135°14'2 4.0
2017-Nov-17 03:00N 34°40' E 135°15'3 6.0
2017-Nov-17 02:30N 34°37' E 135°15'0 0.0
2017-Nov-17 01:56N 34°37' E 135°15'0 0.0
2017-Nov-17 01:26N 34°37' E 135°15'0 0.0
2017-Nov-17 00:50N 34°37' E 135°15'0 0.0
2017-Nov-17 00:14N 34°37' E 135°15'0 0.0
2017-Nov-16 23:56N 34°37' E 135°15'0 0.0
2017-Nov-16 23:20N 34°37' E 135°15'0 0.0
2017-Nov-16 22:56N 34°37' E 135°15'0 0.0
2017-Nov-16 22:26N 34°37' E 135°15'0 0.0
2017-Nov-16 21:14N 34°37' E 135°15'0 0.0
2017-Nov-16 20:44N 34°37' E 135°15'0 0.0
2017-Nov-16 20:14N 34°37' E 135°15'0 0.0
2017-Nov-16 19:56N 34°37' E 135°15'0 0.1
2017-Nov-16 19:26N 34°37' E 135°15'0 0.1
2017-Nov-16 18:50N 34°37' E 135°15'0 0.0
2017-Nov-16 18:26N 34°37' E 135°15'0 0.0
2017-Nov-16 17:56N 34°37' E 135°15'0 0.0
2017-Nov-16 17:26N 34°37' E 135°15'0 0.0
2017-Nov-16 16:56N 34°37' E 135°15'0 0.1
2017-Nov-16 16:26N 34°37' E 135°15'0 0.1
2017-Nov-16 15:45N 34°37' E 135°15'1 3.8
2017-Nov-16 15:29N 34°36' E 135°14'611.5
2017-Nov-16 15:00N 34°35' E 135°07'713.6
2017-Nov-16 14:29N 34°37' E 134°59'  
2017-Nov-14 07:24N 34°36' E 134°53'712.8
2017-Nov-14 06:53N 34°37' E 135°01'411.6
2017-Nov-14 06:30N 34°36' E 135°06'611.6
2017-Nov-14 06:00N 34°36' E 135°13'510.1
2017-Nov-14 05:30N 34°39' E 135°18'3 7.0
2017-Nov-14 05:00N 34°42' E 135°16'0 0.1
2017-Nov-14 04:23N 34°42' E 135°16'0 0.0
2017-Nov-14 03:47N 34°42' E 135°16'0 0.0
2017-Nov-14 03:29N 34°42' E 135°16'0 0.0
2017-Nov-14 02:59N 34°42' E 135°16'0 0.0
2017-Nov-14 02:29N 34°42' E 135°16'0 0.0
2017-Nov-14 01:59N 34°42' E 135°16'0 0.0
2017-Nov-14 01:29N 34°42' E 135°16'0 0.0
2017-Nov-14 00:59N 34°42' E 135°16'0 0.0
2017-Nov-14 00:17N 34°42' E 135°16'0 0.0
2017-Nov-13 23:59N 34°42' E 135°16'0 0.0
2017-Nov-13 23:23N 34°42' E 135°16'0 0.1
2017-Nov-13 22:53N 34°42' E 135°16'1 3.1
2017-Nov-13 22:31N 34°42' E 135°17'5 9.3
2017-Nov-13 22:00N 34°37' E 135°18'  
2017-Nov-10 14:36N 34°35' E 134°51'111.0
2017-Nov-10 14:30N 34°35' E 134°53'611.0
2017-Nov-10 13:59N 34°38' E 134°59'510.3
2017-Nov-10 13:30N 34°37' E 135°05'611.3
2017-Nov-10 13:00N 34°36' E 135°12'611.5
2017-Nov-10 12:30N 34°38' E 135°18'510.4
2017-Nov-10 12:00N 34°41' E 135°24'2 2.8
2017-Nov-10 11:27N 34°42' E 135°25'0 0.0
2017-Nov-10 10:21N 34°42' E 135°25'0 0.0
2017-Nov-10 09:51N 34°42' E 135°25'0 0.0
2017-Nov-10 09:21N 34°42' E 135°25'0 0.0
2017-Nov-10 08:57N 34°42' E 135°25'0 0.0
2017-Nov-10 08:27N 34°42' E 135°25'0 0.0
2017-Nov-10 07:51N 34°42' E 135°25'0 0.0
2017-Nov-10 07:27N 34°42' E 135°25'0 0.0
2017-Nov-10 06:51N 34°42' E 135°25'0 0.0
2017-Nov-10 06:27N 34°42' E 135°25'0 0.0
2017-Nov-10 05:45N 34°42' E 135°25'0 0.0
2017-Nov-10 05:21N 34°42' E 135°25'0 0.0
2017-Nov-10 04:39N 34°42' E 135°25'0 0.0
2017-Nov-10 02:57N 34°42' E 135°25'0 0.6
2017-Nov-10 02:30N 34°42' E 135°24'4 7.8
2017-Nov-10 02:00N 34°39' E 135°21'510.7
2017-Nov-10 01:30N 34°36' E 135°16'611.1
2017-Nov-10 01:00N 34°35' E 135°09'611.0
2017-Nov-10 00:30N 34°36' E 135°03'910.1
2017-Nov-09 23:39N 34°34' E 134°52'  

Dump ship's entire track history